Kurun — FAA9678 — position and weather

sailwx.info

Track history (hours):
 
Tides and Currents Weather Stations Pressure Air Temp Water Temp Dewpoint Dewpoint Depression Visibility Wind Speed Wind Dir Waves Ship Positions

Kurun

Last reported at 2017-Sep-16 15:11 UTC. Time now 2017-Sep-20 18:29 UTC.
Position N 46°09' W 001°10'.

Type: Sailing vessel. MMSI: 227174770.

Date/timePositionNaut miles runAvg speedWind from/ knotsBaromVisibWave heightAir tempDewpointWater temp
2017-Sep-16 15:11N 46°09' W 001°10'0 0.0
2017-Sep-16 14:59N 46°09' W 001°10'0 0.0
2017-Sep-16 14:29N 46°09' W 001°10'0 0.7
2017-Sep-16 14:00N 46°09' W 001°10'5 1.4
2017-Sep-16 10:37N 46°05' W 001°15'1 4.0
2017-Sep-16 10:22N 46°06' W 001°15'1 3.8
2017-Sep-16 09:59N 46°07' W 001°14'2 4.2
2017-Sep-16 09:31N 46°08' W 001°11'0 0.5
2017-Sep-16 09:00N 46°08' W 001°11'0 0.4
2017-Sep-16 08:29N 46°08' W 001°11'0 0.4
2017-Sep-16 08:00N 46°08' W 001°12'0 0.1
2017-Sep-16 07:30N 46°08' W 001°12'1 2.5
2017-Sep-16 07:00N 46°09' W 001°10'  
Track history (hours):
 
Tides and Currents Weather Stations Pressure Air Temp Water Temp Dewpoint Dewpoint Depression Visibility Wind Speed Wind Dir Waves Ship Positions

Kurun

Last reported at 2017-Sep-16 15:11 UTC. Time now 2017-Sep-20 18:29 UTC.
Position N 46°09' W 001°10'.

Type: Sailing vessel. MMSI: 227174770.

Date/timePositionNaut miles runAvg speedWind from/ knotsBaromVisibWave heightAir tempDewpointWater temp
2017-Sep-16 15:11N 46°09' W 001°10'0 0.0
2017-Sep-16 14:59N 46°09' W 001°10'0 0.0
2017-Sep-16 14:29N 46°09' W 001°10'0 0.7
2017-Sep-16 14:00N 46°09' W 001°10'5 1.4
2017-Sep-16 10:37N 46°05' W 001°15'1 4.0
2017-Sep-16 10:22N 46°06' W 001°15'1 3.8
2017-Sep-16 09:59N 46°07' W 001°14'2 4.2
2017-Sep-16 09:31N 46°08' W 001°11'0 0.5
2017-Sep-16 09:00N 46°08' W 001°11'0 0.4
2017-Sep-16 08:29N 46°08' W 001°11'0 0.4
2017-Sep-16 08:00N 46°08' W 001°12'0 0.1
2017-Sep-16 07:30N 46°08' W 001°12'1 2.5
2017-Sep-16 07:00N 46°09' W 001°10'  

Dump ship's entire track history